sensor_id;sensor_type;location;lat;lon;timestamp;P1;durP1;ratioP1;P2;durP2;ratioP2
66927;SDS011;59882;45.624;11.698;2022-09-09T00:03:52;9.47;;;6.47;;
66927;SDS011;59882;45.624;11.698;2022-09-09T00:06:30;10.00;;;6.80;;
66927;SDS011;59882;45.624;11.698;2022-09-09T00:09:01;10.77;;;7.35;;
66927;SDS011;59882;45.624;11.698;2022-09-09T00:12:04;12.25;;;6.93;;
66927;SDS011;59882;45.624;11.698;2022-09-09T00:14:37;10.15;;;6.57;;
66927;SDS011;59882;45.624;11.698;2022-09-09T00:17:09;9.43;;;6.67;;
66927;SDS011;59882;45.624;11.698;2022-09-09T00:19:46;8.82;;;6.40;;
66927;SDS011;59882;45.624;11.698;2022-09-09T00:22:25;10.20;;;7.13;;
66927;SDS011;59882;45.624;11.698;2022-09-09T00:24:56;9.60;;;6.75;;
66927;SDS011;59882;45.624;11.698;2022-09-09T00:27:32;14.90;;;7.13;;
66927;SDS011;59882;45.624;11.698;2022-09-09T00:32:41;13.30;;;6.90;;
66927;SDS011;59882;45.624;11.698;2022-09-09T00:35:17;9.32;;;6.57;;
66927;SDS011;59882;45.624;11.698;2022-09-09T00:37:50;13.23;;;7.10;;
66927;SDS011;59882;45.624;11.698;2022-09-09T00:43:10;10.50;;;6.60;;
66927;SDS011;59882;45.624;11.698;2022-09-09T00:52:06;12.50;;;5.75;;
66927;SDS011;59882;45.624;11.698;2022-09-09T00:57:34;8.37;;;5.33;;
66927;SDS011;59882;45.624;11.698;2022-09-09T01:02:52;6.95;;;5.10;;
66927;SDS011;59882;45.624;11.698;2022-09-09T01:05:21;8.27;;;4.88;;
66927;SDS011;59882;45.624;11.698;2022-09-09T01:08:03;7.93;;;5.35;;
66927;SDS011;59882;45.624;11.698;2022-09-09T01:13:33;9.50;;;5.50;;
66927;SDS011;59882;45.624;11.698;2022-09-09T01:16:01;8.45;;;5.57;;
66927;SDS011;59882;45.624;11.698;2022-09-09T01:18:30;9.35;;;5.38;;
66927;SDS011;59882;45.624;11.698;2022-09-09T01:21:08;10.93;;;6.03;;
66927;SDS011;59882;45.624;11.698;2022-09-09T01:26:41;12.63;;;5.90;;
66927;SDS011;59882;45.624;11.698;2022-09-09T01:29:09;10.80;;;6.63;;
66927;SDS011;59882;45.624;11.698;2022-09-09T01:31:38;11.15;;;6.82;;
66927;SDS011;59882;45.624;11.698;2022-09-09T01:34:16;9.82;;;6.60;;
66927;SDS011;59882;45.624;11.698;2022-09-09T01:36:49;9.97;;;6.70;;
66927;SDS011;59882;45.624;11.698;2022-09-09T01:39:34;16.55;;;7.10;;
66927;SDS011;59882;45.624;11.698;2022-09-09T01:42:02;15.63;;;6.45;;
66927;SDS011;59882;45.624;11.698;2022-09-09T01:44:30;9.38;;;5.78;;
66927;SDS011;59882;45.624;11.698;2022-09-09T01:46:56;10.02;;;5.40;;
66927;SDS011;59882;45.624;11.698;2022-09-09T01:49:22;10.17;;;5.73;;
66927;SDS011;59882;45.624;11.698;2022-09-09T01:51:49;9.00;;;5.97;;
66927;SDS011;59882;45.624;11.698;2022-09-09T01:54:18;10.13;;;5.95;;
66927;SDS011;59882;45.624;11.698;2022-09-09T02:02:36;10.50;;;6.50;;
66927;SDS011;59882;45.624;11.698;2022-09-09T02:05:11;9.48;;;6.00;;
66927;SDS011;59882;45.624;11.698;2022-09-09T02:08:26;12.15;;;5.80;;
66927;SDS011;59882;45.624;11.698;2022-09-09T02:13:37;10.13;;;5.28;;
66927;SDS011;59882;45.624;11.698;2022-09-09T02:16:08;9.27;;;5.00;;
66927;SDS011;59882;45.624;11.698;2022-09-09T02:21:24;10.85;;;4.35;;
66927;SDS011;59882;45.624;11.698;2022-09-09T02:23:50;8.77;;;4.30;;
66927;SDS011;59882;45.624;11.698;2022-09-09T02:26:18;13.95;;;4.53;;
66927;SDS011;59882;45.624;11.698;2022-09-09T02:28:48;9.77;;;4.30;;
66927;SDS011;59882;45.624;11.698;2022-09-09T02:31:17;7.50;;;3.95;;
66927;SDS011;59882;45.624;11.698;2022-09-09T02:33:50;10.20;;;3.53;;
66927;SDS011;59882;45.624;11.698;2022-09-09T02:36:19;8.98;;;3.35;;
66927;SDS011;59882;45.624;11.698;2022-09-09T02:38:47;7.32;;;3.47;;
66927;SDS011;59882;45.624;11.698;2022-09-09T02:41:16;10.53;;;3.83;;
66927;SDS011;59882;45.624;11.698;2022-09-09T02:43:44;11.63;;;3.25;;
66927;SDS011;59882;45.624;11.698;2022-09-09T02:48:52;7.47;;;3.80;;
66927;SDS011;59882;45.624;11.698;2022-09-09T02:54:27;7.60;;;3.20;;
66927;SDS011;59882;45.624;11.698;2022-09-09T02:56:55;6.50;;;3.50;;
66927;SDS011;59882;45.624;11.698;2022-09-09T02:59:35;11.30;;;3.45;;
66927;SDS011;59882;45.624;11.698;2022-09-09T03:02:02;7.87;;;2.87;;
66927;SDS011;59882;45.624;11.698;2022-09-09T03:04:27;9.25;;;3.40;;
66927;SDS011;59882;45.624;11.698;2022-09-09T03:06:54;8.40;;;2.55;;
66927;SDS011;59882;45.624;11.698;2022-09-09T03:09:20;6.43;;;2.90;;
66927;SDS011;59882;45.624;11.698;2022-09-09T03:11:46;8.03;;;2.60;;
66927;SDS011;59882;45.624;11.698;2022-09-09T03:14:12;6.13;;;2.90;;
66927;SDS011;59882;45.624;11.698;2022-09-09T03:16:37;8.23;;;2.55;;
66927;SDS011;59882;45.624;11.698;2022-09-09T03:19:03;7.75;;;3.05;;
66927;SDS011;59882;45.624;11.698;2022-09-09T03:21:29;7.70;;;3.00;;
66927;SDS011;59882;45.624;11.698;2022-09-09T03:23:54;6.37;;;2.57;;
66927;SDS011;59882;45.624;11.698;2022-09-09T03:26:20;10.20;;;3.17;;
66927;SDS011;59882;45.624;11.698;2022-09-09T03:28:46;7.57;;;2.90;;
66927;SDS011;59882;45.624;11.698;2022-09-09T03:31:12;9.32;;;3.97;;
66927;SDS011;59882;45.624;11.698;2022-09-09T03:33:37;8.88;;;3.70;;
66927;SDS011;59882;45.624;11.698;2022-09-09T03:36:04;8.83;;;3.93;;
66927;SDS011;59882;45.624;11.698;2022-09-09T03:38:30;9.40;;;3.78;;
66927;SDS011;59882;45.624;11.698;2022-09-09T03:40:57;8.55;;;3.67;;
66927;SDS011;59882;45.624;11.698;2022-09-09T03:43:23;10.65;;;4.13;;
66927;SDS011;59882;45.624;11.698;2022-09-09T03:45:50;8.85;;;3.50;;
66927;SDS011;59882;45.624;11.698;2022-09-09T03:48:16;7.63;;;3.80;;
66927;SDS011;59882;45.624;11.698;2022-09-09T03:50:47;8.82;;;3.60;;
66927;SDS011;59882;45.624;11.698;2022-09-09T03:53:14;8.50;;;4.25;;
66927;SDS011;59882;45.624;11.698;2022-09-09T03:55:44;10.38;;;4.78;;
66927;SDS011;59882;45.624;11.698;2022-09-09T03:58:17;11.60;;;5.15;;
66927;SDS011;59882;45.624;11.698;2022-09-09T04:00:44;14.03;;;6.10;;
66927;SDS011;59882;45.624;11.698;2022-09-09T04:03:18;13.82;;;6.07;;
66927;SDS011;59882;45.624;11.698;2022-09-09T04:05:44;7.68;;;5.00;;
66927;SDS011;59882;45.624;11.698;2022-09-09T04:08:09;10.73;;;5.27;;
66927;SDS011;59882;45.624;11.698;2022-09-09T04:10:36;9.10;;;5.18;;
66927;SDS011;59882;45.624;11.698;2022-09-09T04:13:02;13.10;;;5.75;;
66927;SDS011;59882;45.624;11.698;2022-09-09T04:15:29;13.00;;;5.90;;
66927;SDS011;59882;45.624;11.698;2022-09-09T04:17:55;14.18;;;6.25;;
66927;SDS011;59882;45.624;11.698;2022-09-09T04:20:21;14.73;;;6.82;;
66927;SDS011;59882;45.624;11.698;2022-09-09T04:22:47;15.07;;;6.20;;
66927;SDS011;59882;45.624;11.698;2022-09-09T04:25:13;10.43;;;5.43;;
66927;SDS011;59882;45.624;11.698;2022-09-09T04:27:39;12.88;;;5.95;;
66927;SDS011;59882;45.624;11.698;2022-09-09T04:30:05;12.77;;;5.80;;
66927;SDS011;59882;45.624;11.698;2022-09-09T04:32:35;11.00;;;5.70;;
66927;SDS011;59882;45.624;11.698;2022-09-09T04:35:02;11.45;;;5.40;;
66927;SDS011;59882;45.624;11.698;2022-09-09T04:37:28;11.93;;;5.10;;
66927;SDS011;59882;45.624;11.698;2022-09-09T04:39:53;11.87;;;5.07;;
66927;SDS011;59882;45.624;11.698;2022-09-09T04:42:19;8.68;;;4.72;;
66927;SDS011;59882;45.624;11.698;2022-09-09T04:44:45;15.70;;;5.40;;
66927;SDS011;59882;45.624;11.698;2022-09-09T04:47:11;12.70;;;5.68;;
66927;SDS011;59882;45.624;11.698;2022-09-09T04:49:36;12.73;;;5.22;;
66927;SDS011;59882;45.624;11.698;2022-09-09T04:52:03;11.83;;;5.13;;
66927;SDS011;59882;45.624;11.698;2022-09-09T04:54:29;12.32;;;5.32;;
66927;SDS011;59882;45.624;11.698;2022-09-09T04:56:55;13.13;;;5.95;;
66927;SDS011;59882;45.624;11.698;2022-09-09T04:59:21;12.17;;;5.77;;
66927;SDS011;59882;45.624;11.698;2022-09-09T05:01:47;12.27;;;6.18;;
66927;SDS011;59882;45.624;11.698;2022-09-09T05:04:13;16.58;;;7.60;;
66927;SDS011;59882;45.624;11.698;2022-09-09T05:06:40;17.05;;;8.52;;
66927;SDS011;59882;45.624;11.698;2022-09-09T05:09:07;15.32;;;8.95;;
66927;SDS011;59882;45.624;11.698;2022-09-09T05:11:33;12.87;;;8.83;;
66927;SDS011;59882;45.624;11.698;2022-09-09T05:14:01;15.95;;;9.23;;
66927;SDS011;59882;45.624;11.698;2022-09-09T05:16:27;13.68;;;9.18;;
66927;SDS011;59882;45.624;11.698;2022-09-09T05:18:53;14.20;;;9.20;;
66927;SDS011;59882;45.624;11.698;2022-09-09T05:21:19;21.50;;;10.45;;
66927;SDS011;59882;45.624;11.698;2022-09-09T05:23:46;19.02;;;9.73;;
66927;SDS011;59882;45.624;11.698;2022-09-09T05:26:16;17.10;;;8.50;;
66927;SDS011;59882;45.624;11.698;2022-09-09T05:28:44;16.85;;;8.52;;
66927;SDS011;59882;45.624;11.698;2022-09-09T05:31:10;15.55;;;8.48;;
66927;SDS011;59882;45.624;11.698;2022-09-09T05:33:38;15.55;;;9.23;;
66927;SDS011;59882;45.624;11.698;2022-09-09T05:36:09;15.02;;;9.45;;
66927;SDS011;59882;45.624;11.698;2022-09-09T05:38:41;12.83;;;7.53;;
66927;SDS011;59882;45.624;11.698;2022-09-09T05:41:08;15.68;;;8.77;;
66927;SDS011;59882;45.624;11.698;2022-09-09T05:43:36;12.88;;;7.78;;
66927;SDS011;59882;45.624;11.698;2022-09-09T05:48:29;15.75;;;8.70;;
66927;SDS011;59882;45.624;11.698;2022-09-09T05:51:02;13.40;;;7.83;;
66927;SDS011;59882;45.624;11.698;2022-09-09T05:53:29;14.63;;;7.68;;
66927;SDS011;59882;45.624;11.698;2022-09-09T05:56:24;12.52;;;7.22;;
66927;SDS011;59882;45.624;11.698;2022-09-09T05:58:50;15.50;;;7.00;;
66927;SDS011;59882;45.624;11.698;2022-09-09T06:01:19;11.68;;;6.60;;
66927;SDS011;59882;45.624;11.698;2022-09-09T06:03:47;13.77;;;6.00;;
66927;SDS011;59882;45.624;11.698;2022-09-09T06:06:14;13.40;;;6.28;;
66927;SDS011;59882;45.624;11.698;2022-09-09T06:08:42;14.43;;;5.88;;
66927;SDS011;59882;45.624;11.698;2022-09-09T06:11:14;12.65;;;5.35;;
66927;SDS011;59882;45.624;11.698;2022-09-09T06:13:44;14.20;;;5.80;;
66927;SDS011;59882;45.624;11.698;2022-09-09T06:16:11;11.27;;;5.13;;
66927;SDS011;59882;45.624;11.698;2022-09-09T06:18:38;11.13;;;5.60;;
66927;SDS011;59882;45.624;11.698;2022-09-09T06:21:05;11.57;;;5.60;;
66927;SDS011;59882;45.624;11.698;2022-09-09T06:23:40;10.07;;;5.00;;
66927;SDS011;59882;45.624;11.698;2022-09-09T06:26:06;12.90;;;4.67;;
66927;SDS011;59882;45.624;11.698;2022-09-09T06:28:35;13.02;;;4.63;;
66927;SDS011;59882;45.624;11.698;2022-09-09T06:31:02;10.55;;;3.97;;
66927;SDS011;59882;45.624;11.698;2022-09-09T06:33:42;8.55;;;3.28;;
66927;SDS011;59882;45.624;11.698;2022-09-09T06:36:15;8.73;;;3.40;;
66927;SDS011;59882;45.624;11.698;2022-09-09T06:38:46;8.00;;;3.30;;
66927;SDS011;59882;45.624;11.698;2022-09-09T06:41:12;7.20;;;3.40;;
66927;SDS011;59882;45.624;11.698;2022-09-09T06:43:40;8.68;;;3.97;;
66927;SDS011;59882;45.624;11.698;2022-09-09T06:46:08;9.55;;;3.88;;
66927;SDS011;59882;45.624;11.698;2022-09-09T06:48:36;9.57;;;3.43;;
66927;SDS011;59882;45.624;11.698;2022-09-09T06:51:07;8.27;;;2.83;;
66927;SDS011;59882;45.624;11.698;2022-09-09T06:53:33;6.35;;;3.10;;
66927;SDS011;59882;45.624;11.698;2022-09-09T06:58:35;9.82;;;3.53;;
66927;SDS011;59882;45.624;11.698;2022-09-09T07:01:03;8.10;;;3.27;;
66927;SDS011;59882;45.624;11.698;2022-09-09T07:03:30;7.47;;;2.40;;
66927;SDS011;59882;45.624;11.698;2022-09-09T07:05:56;8.38;;;3.30;;
66927;SDS011;59882;45.624;11.698;2022-09-09T07:08:22;11.73;;;4.07;;
66927;SDS011;59882;45.624;11.698;2022-09-09T07:10:49;9.13;;;3.23;;
66927;SDS011;59882;45.624;11.698;2022-09-09T07:13:18;10.77;;;3.58;;
66927;SDS011;59882;45.624;11.698;2022-09-09T07:15:50;9.60;;;2.83;;
66927;SDS011;59882;45.624;11.698;2022-09-09T07:18:16;9.60;;;2.90;;
66927;SDS011;59882;45.624;11.698;2022-09-09T07:20:42;6.93;;;2.47;;
66927;SDS011;59882;45.624;11.698;2022-09-09T07:23:08;7.88;;;2.80;;
66927;SDS011;59882;45.624;11.698;2022-09-09T07:25:33;8.13;;;2.60;;
66927;SDS011;59882;45.624;11.698;2022-09-09T07:27:59;6.07;;;2.92;;
66927;SDS011;59882;45.624;11.698;2022-09-09T07:30:25;7.40;;;2.07;;
66927;SDS011;59882;45.624;11.698;2022-09-09T07:32:51;9.93;;;2.40;;
66927;SDS011;59882;45.624;11.698;2022-09-09T07:35:17;9.68;;;2.80;;
66927;SDS011;59882;45.624;11.698;2022-09-09T07:37:43;6.50;;;2.27;;
66927;SDS011;59882;45.624;11.698;2022-09-09T07:40:10;7.00;;;2.40;;
66927;SDS011;59882;45.624;11.698;2022-09-09T07:42:35;7.37;;;2.73;;
66927;SDS011;59882;45.624;11.698;2022-09-09T07:45:02;11.10;;;2.85;;
66927;SDS011;59882;45.624;11.698;2022-09-09T07:47:29;8.45;;;2.38;;
66927;SDS011;59882;45.624;11.698;2022-09-09T07:49:54;10.63;;;2.50;;
66927;SDS011;59882;45.624;11.698;2022-09-09T07:52:20;7.03;;;2.40;;
66927;SDS011;59882;45.624;11.698;2022-09-09T07:54:46;8.15;;;2.30;;
66927;SDS011;59882;45.624;11.698;2022-09-09T07:57:12;6.40;;;2.10;;
66927;SDS011;59882;45.624;11.698;2022-09-09T07:59:38;8.38;;;2.53;;
66927;SDS011;59882;45.624;11.698;2022-09-09T08:02:03;6.77;;;2.50;;
66927;SDS011;59882;45.624;11.698;2022-09-09T08:04:29;9.02;;;2.90;;
66927;SDS011;59882;45.624;11.698;2022-09-09T08:06:57;6.77;;;2.43;;
66927;SDS011;59882;45.624;11.698;2022-09-09T08:09:24;8.60;;;2.50;;
66927;SDS011;59882;45.624;11.698;2022-09-09T08:11:52;5.78;;;2.20;;
66927;SDS011;59882;45.624;11.698;2022-09-09T08:14:17;7.38;;;3.17;;
66927;SDS011;59882;45.624;11.698;2022-09-09T08:16:44;5.67;;;2.47;;
66927;SDS011;59882;45.624;11.698;2022-09-09T08:19:11;7.93;;;2.67;;
66927;SDS011;59882;45.624;11.698;2022-09-09T08:21:39;6.00;;;2.67;;
66927;SDS011;59882;45.624;11.698;2022-09-09T08:24:06;9.20;;;2.88;;
66927;SDS011;59882;45.624;11.698;2022-09-09T08:26:34;7.00;;;2.67;;
66927;SDS011;59882;45.624;11.698;2022-09-09T08:29:02;9.40;;;2.90;;
66927;SDS011;59882;45.624;11.698;2022-09-09T08:31:30;8.77;;;3.38;;
66927;SDS011;59882;45.624;11.698;2022-09-09T08:33:58;8.60;;;3.30;;
66927;SDS011;59882;45.624;11.698;2022-09-09T08:36:26;7.15;;;2.80;;
66927;SDS011;59882;45.624;11.698;2022-09-09T08:38:54;8.00;;;2.63;;
66927;SDS011;59882;45.624;11.698;2022-09-09T08:44:45;7.93;;;2.15;;
66927;SDS011;59882;45.624;11.698;2022-09-09T08:52:51;6.07;;;2.33;;
66927;SDS011;59882;45.624;11.698;2022-09-09T09:06:35;8.47;;;2.90;;
66927;SDS011;59882;45.624;11.698;2022-09-09T09:12:18;7.35;;;2.15;;
66927;SDS011;59882;45.624;11.698;2022-09-09T09:14:46;7.40;;;2.38;;
66927;SDS011;59882;45.624;11.698;2022-09-09T09:17:17;8.48;;;2.92;;
66927;SDS011;59882;45.624;11.698;2022-09-09T09:19:44;10.73;;;2.23;;
66927;SDS011;59882;45.624;11.698;2022-09-09T09:24:52;9.27;;;2.72;;
66927;SDS011;59882;45.624;11.698;2022-09-09T09:30:28;8.90;;;2.58;;
66927;SDS011;59882;45.624;11.698;2022-09-09T09:33:03;8.30;;;2.90;;
66927;SDS011;59882;45.624;11.698;2022-09-09T09:35:40;7.10;;;2.83;;
66927;SDS011;59882;45.624;11.698;2022-09-09T09:38:19;11.20;;;2.80;;
66927;SDS011;59882;45.624;11.698;2022-09-09T09:40:51;8.13;;;2.23;;
66927;SDS011;59882;45.624;11.698;2022-09-09T09:43:29;5.68;;;2.33;;
66927;SDS011;59882;45.624;11.698;2022-09-09T09:45:57;7.88;;;2.45;;
66927;SDS011;59882;45.624;11.698;2022-09-09T09:48:23;6.68;;;2.45;;
66927;SDS011;59882;45.624;11.698;2022-09-09T09:50:51;7.18;;;2.53;;
66927;SDS011;59882;45.624;11.698;2022-09-09T09:53:25;7.30;;;2.57;;
66927;SDS011;59882;45.624;11.698;2022-09-09T09:55:54;6.82;;;2.20;;
66927;SDS011;59882;45.624;11.698;2022-09-09T09:58:27;7.43;;;2.30;;
66927;SDS011;59882;45.624;11.698;2022-09-09T10:00:57;4.80;;;2.40;;
66927;SDS011;59882;45.624;11.698;2022-09-09T10:05:54;7.47;;;2.00;;
66927;SDS011;59882;45.624;11.698;2022-09-09T10:08:22;7.93;;;2.40;;
66927;SDS011;59882;45.624;11.698;2022-09-09T10:24:00;6.80;;;2.30;;
66927;SDS011;59882;45.624;11.698;2022-09-09T10:32:33;5.47;;;1.73;;
66927;SDS011;59882;45.624;11.698;2022-09-09T10:54:35;8.52;;;2.00;;
66927;SDS011;59882;45.624;11.698;2022-09-09T10:59:52;4.90;;;2.00;;
66927;SDS011;59882;45.624;11.698;2022-09-09T11:02:32;6.60;;;1.42;;
66927;SDS011;59882;45.624;11.698;2022-09-09T11:05:08;6.20;;;2.08;;
66927;SDS011;59882;45.624;11.698;2022-09-09T11:10:58;4.60;;;1.65;;
66927;SDS011;59882;45.624;11.698;2022-09-09T11:19:40;5.70;;;1.13;;
66927;SDS011;59882;45.624;11.698;2022-09-09T11:21:49;6.30;;;1.25;;
66927;SDS011;59882;45.624;11.698;2022-09-09T11:32:29;7.00;;;1.75;;
66927;SDS011;59882;45.624;11.698;2022-09-09T11:40:23;6.67;;;1.90;;
66927;SDS011;59882;45.624;11.698;2022-09-09T11:45:30;7.65;;;2.22;;
66927;SDS011;59882;45.624;11.698;2022-09-09T11:47:59;6.75;;;2.10;;
66927;SDS011;59882;45.624;11.698;2022-09-09T11:50:30;6.85;;;2.53;;
66927;SDS011;59882;45.624;11.698;2022-09-09T11:53:05;7.20;;;2.33;;
66927;SDS011;59882;45.624;11.698;2022-09-09T11:55:46;9.68;;;2.33;;
66927;SDS011;59882;45.624;11.698;2022-09-09T12:05:56;12.77;;;2.38;;
66927;SDS011;59882;45.624;11.698;2022-09-09T12:08:26;8.80;;;2.85;;
66927;SDS011;59882;45.624;11.698;2022-09-09T12:10:55;10.67;;;2.27;;
66927;SDS011;59882;45.624;11.698;2022-09-09T12:13:23;6.00;;;2.10;;
66927;SDS011;59882;45.624;11.698;2022-09-09T12:18:21;13.30;;;2.50;;
66927;SDS011;59882;45.624;11.698;2022-09-09T12:21:18;6.85;;;1.95;;
66927;SDS011;59882;45.624;11.698;2022-09-09T12:23:56;8.27;;;1.80;;
66927;SDS011;59882;45.624;11.698;2022-09-09T12:26:39;9.05;;;2.30;;
66927;SDS011;59882;45.624;11.698;2022-09-09T12:32:08;5.40;;;1.00;;
66927;SDS011;59882;45.624;11.698;2022-09-09T12:34:44;7.22;;;1.20;;
66927;SDS011;59882;45.624;11.698;2022-09-09T12:37:21;5.03;;;1.40;;
66927;SDS011;59882;45.624;11.698;2022-09-09T12:40:25;5.57;;;1.15;;
66927;SDS011;59882;45.624;11.698;2022-09-09T12:42:52;5.00;;;0.80;;
66927;SDS011;59882;45.624;11.698;2022-09-09T12:45:26;4.55;;;0.70;;
66927;SDS011;59882;45.624;11.698;2022-09-09T12:48:08;3.65;;;0.40;;
66927;SDS011;59882;45.624;11.698;2022-09-09T12:50:46;3.37;;;0.30;;
66927;SDS011;59882;45.624;11.698;2022-09-09T12:58:35;1.70;;;0.30;;
66927;SDS011;59882;45.624;11.698;2022-09-09T13:01:03;2.40;;;0.50;;
66927;SDS011;59882;45.624;11.698;2022-09-09T13:03:31;4.00;;;0.87;;
66927;SDS011;59882;45.624;11.698;2022-09-09T13:05:59;3.15;;;0.60;;
66927;SDS011;59882;45.624;11.698;2022-09-09T13:08:39;3.15;;;0.70;;
66927;SDS011;59882;45.624;11.698;2022-09-09T13:11:10;2.75;;;0.40;;
66927;SDS011;59882;45.624;11.698;2022-09-09T13:13:41;2.72;;;0.70;;
66927;SDS011;59882;45.624;11.698;2022-09-09T13:16:53;3.60;;;0.90;;
66927;SDS011;59882;45.624;11.698;2022-09-09T13:19:10;3.65;;;0.98;;
66927;SDS011;59882;45.624;11.698;2022-09-09T13:21:40;4.10;;;0.77;;
66927;SDS011;59882;45.624;11.698;2022-09-09T13:29:53;6.90;;;1.30;;
66927;SDS011;59882;45.624;11.698;2022-09-09T13:32:21;3.60;;;1.10;;
66927;SDS011;59882;45.624;11.698;2022-09-09T13:34:57;4.47;;;0.85;;
66927;SDS011;59882;45.624;11.698;2022-09-09T13:37:37;3.08;;;0.60;;
66927;SDS011;59882;45.624;11.698;2022-09-09T13:40:06;4.37;;;1.20;;
66927;SDS011;59882;45.624;11.698;2022-09-09T13:42:46;2.22;;;0.52;;
66927;SDS011;59882;45.624;11.698;2022-09-09T13:45:19;2.70;;;0.40;;
66927;SDS011;59882;45.624;11.698;2022-09-09T13:47:47;4.22;;;0.60;;
66927;SDS011;59882;45.624;11.698;2022-09-09T13:52:46;2.33;;;0.83;;
66927;SDS011;59882;45.624;11.698;2022-09-09T13:55:17;2.58;;;0.75;;
66927;SDS011;59882;45.624;11.698;2022-09-09T13:57:52;2.85;;;0.75;;
66927;SDS011;59882;45.624;11.698;2022-09-09T14:00:20;2.97;;;0.55;;
66927;SDS011;59882;45.624;11.698;2022-09-09T14:02:47;2.92;;;0.90;;
66927;SDS011;59882;45.624;11.698;2022-09-09T14:05:13;2.47;;;0.60;;
66927;SDS011;59882;45.624;11.698;2022-09-09T14:07:41;4.32;;;0.88;;
66927;SDS011;59882;45.624;11.698;2022-09-09T14:10:08;2.85;;;1.00;;
66927;SDS011;59882;45.624;11.698;2022-09-09T14:12:34;6.72;;;1.05;;
66927;SDS011;59882;45.624;11.698;2022-09-09T14:15:01;3.08;;;1.27;;
66927;SDS011;59882;45.624;11.698;2022-09-09T14:17:27;4.27;;;1.37;;
66927;SDS011;59882;45.624;11.698;2022-09-09T14:19:56;3.03;;;1.13;;
66927;SDS011;59882;45.624;11.698;2022-09-09T14:22:22;2.78;;;1.20;;
66927;SDS011;59882;45.624;11.698;2022-09-09T14:24:48;2.92;;;1.38;;
66927;SDS011;59882;45.624;11.698;2022-09-09T14:27:16;3.25;;;1.15;;
66927;SDS011;59882;45.624;11.698;2022-09-09T14:29:43;3.83;;;1.40;;
66927;SDS011;59882;45.624;11.698;2022-09-09T14:32:10;3.83;;;1.45;;
66927;SDS011;59882;45.624;11.698;2022-09-09T14:34:36;4.20;;;1.90;;
66927;SDS011;59882;45.624;11.698;2022-09-09T14:37:02;3.55;;;1.70;;
66927;SDS011;59882;45.624;11.698;2022-09-09T14:39:28;4.43;;;1.80;;
66927;SDS011;59882;45.624;11.698;2022-09-09T14:41:53;3.95;;;1.92;;
66927;SDS011;59882;45.624;11.698;2022-09-09T14:44:19;3.28;;;1.60;;
66927;SDS011;59882;45.624;11.698;2022-09-09T14:46:45;2.80;;;1.55;;
66927;SDS011;59882;45.624;11.698;2022-09-09T14:49:11;5.87;;;2.20;;
66927;SDS011;59882;45.624;11.698;2022-09-09T14:51:37;4.05;;;1.63;;
66927;SDS011;59882;45.624;11.698;2022-09-09T14:54:03;4.43;;;2.20;;
66927;SDS011;59882;45.624;11.698;2022-09-09T14:56:31;6.27;;;2.90;;
66927;SDS011;59882;45.624;11.698;2022-09-09T14:58:59;4.10;;;2.50;;
66927;SDS011;59882;45.624;11.698;2022-09-09T15:01:26;6.07;;;2.33;;
66927;SDS011;59882;45.624;11.698;2022-09-09T15:03:53;4.93;;;2.30;;
66927;SDS011;59882;45.624;11.698;2022-09-09T15:06:28;3.88;;;2.40;;
66927;SDS011;59882;45.624;11.698;2022-09-09T15:08:55;3.50;;;2.30;;
66927;SDS011;59882;45.624;11.698;2022-09-09T15:11:26;4.00;;;2.30;;
66927;SDS011;59882;45.624;11.698;2022-09-09T15:13:58;4.25;;;2.20;;
66927;SDS011;59882;45.624;11.698;2022-09-09T15:16:26;4.80;;;2.45;;
66927;SDS011;59882;45.624;11.698;2022-09-09T15:18:54;4.18;;;2.22;;
66927;SDS011;59882;45.624;11.698;2022-09-09T15:21:23;5.30;;;2.25;;
66927;SDS011;59882;45.624;11.698;2022-09-09T15:23:50;5.25;;;1.92;;
66927;SDS011;59882;45.624;11.698;2022-09-09T15:26:16;4.90;;;2.28;;
66927;SDS011;59882;45.624;11.698;2022-09-09T15:28:43;6.43;;;2.28;;
66927;SDS011;59882;45.624;11.698;2022-09-09T15:31:11;4.30;;;1.63;;
66927;SDS011;59882;45.624;11.698;2022-09-09T15:33:51;4.85;;;1.77;;
66927;SDS011;59882;45.624;11.698;2022-09-09T15:38:59;4.30;;;2.35;;
66927;SDS011;59882;45.624;11.698;2022-09-09T15:41:26;6.80;;;2.53;;
66927;SDS011;59882;45.624;11.698;2022-09-09T15:43:53;4.75;;;1.77;;
66927;SDS011;59882;45.624;11.698;2022-09-09T15:48:55;4.63;;;2.03;;
66927;SDS011;59882;45.624;11.698;2022-09-09T15:51:23;4.18;;;1.75;;
66927;SDS011;59882;45.624;11.698;2022-09-09T15:53:56;4.13;;;2.00;;
66927;SDS011;59882;45.624;11.698;2022-09-09T15:56:23;3.60;;;1.90;;
66927;SDS011;59882;45.624;11.698;2022-09-09T15:58:50;3.85;;;2.05;;
66927;SDS011;59882;45.624;11.698;2022-09-09T16:01:17;4.25;;;2.30;;
66927;SDS011;59882;45.624;11.698;2022-09-09T16:03:44;5.72;;;2.47;;
66927;SDS011;59882;45.624;11.698;2022-09-09T16:06:12;4.82;;;2.47;;
66927;SDS011;59882;45.624;11.698;2022-09-09T16:08:39;5.25;;;2.47;;
66927;SDS011;59882;45.624;11.698;2022-09-09T16:11:14;4.15;;;1.80;;
66927;SDS011;59882;45.624;11.698;2022-09-09T16:13:48;4.55;;;2.00;;
66927;SDS011;59882;45.624;11.698;2022-09-09T16:16:15;4.63;;;2.10;;
66927;SDS011;59882;45.624;11.698;2022-09-09T16:18:42;3.97;;;1.92;;
66927;SDS011;59882;45.624;11.698;2022-09-09T16:21:16;5.65;;;2.40;;
66927;SDS011;59882;45.624;11.698;2022-09-09T16:23:44;3.10;;;1.67;;
66927;SDS011;59882;45.624;11.698;2022-09-09T16:26:11;4.38;;;1.83;;
66927;SDS011;59882;45.624;11.698;2022-09-09T16:28:38;2.83;;;1.33;;
66927;SDS011;59882;45.624;11.698;2022-09-09T16:31:05;5.50;;;1.60;;
66927;SDS011;59882;45.624;11.698;2022-09-09T16:33:31;4.47;;;1.30;;
66927;SDS011;59882;45.624;11.698;2022-09-09T16:35:57;3.58;;;1.45;;
66927;SDS011;59882;45.624;11.698;2022-09-09T16:38:23;4.50;;;1.97;;
66927;SDS011;59882;45.624;11.698;2022-09-09T16:40:49;5.57;;;2.15;;
66927;SDS011;59882;45.624;11.698;2022-09-09T16:43:15;4.45;;;1.70;;
66927;SDS011;59882;45.624;11.698;2022-09-09T16:45:44;4.10;;;2.40;;
66927;SDS011;59882;45.624;11.698;2022-09-09T16:48:10;3.90;;;2.15;;
66927;SDS011;59882;45.624;11.698;2022-09-09T16:50:37;4.90;;;2.25;;
66927;SDS011;59882;45.624;11.698;2022-09-09T16:53:04;4.38;;;1.98;;
66927;SDS011;59882;45.624;11.698;2022-09-09T16:55:31;4.20;;;2.00;;
66927;SDS011;59882;45.624;11.698;2022-09-09T16:57:57;4.90;;;1.92;;
66927;SDS011;59882;45.624;11.698;2022-09-09T17:00:23;7.40;;;2.08;;
66927;SDS011;59882;45.624;11.698;2022-09-09T17:02:48;5.33;;;1.80;;
66927;SDS011;59882;45.624;11.698;2022-09-09T17:05:14;7.90;;;3.17;;
66927;SDS011;59882;45.624;11.698;2022-09-09T17:07:40;8.68;;;3.00;;
66927;SDS011;59882;45.624;11.698;2022-09-09T17:10:05;5.30;;;1.97;;
66927;SDS011;59882;45.624;11.698;2022-09-09T17:12:32;5.85;;;2.10;;
66927;SDS011;59882;45.624;11.698;2022-09-09T17:14:58;7.35;;;1.95;;
66927;SDS011;59882;45.624;11.698;2022-09-09T17:17:25;5.00;;;1.95;;
66927;SDS011;59882;45.624;11.698;2022-09-09T17:19:51;4.20;;;1.70;;
66927;SDS011;59882;45.624;11.698;2022-09-09T17:22:17;6.53;;;3.00;;
66927;SDS011;59882;45.624;11.698;2022-09-09T17:24:44;7.40;;;2.45;;
66927;SDS011;59882;45.624;11.698;2022-09-09T17:27:11;4.15;;;1.70;;
66927;SDS011;59882;45.624;11.698;2022-09-09T17:29:37;6.00;;;1.70;;
66927;SDS011;59882;45.624;11.698;2022-09-09T17:32:03;5.28;;;1.90;;
66927;SDS011;59882;45.624;11.698;2022-09-09T17:34:30;7.68;;;4.28;;
66927;SDS011;59882;45.624;11.698;2022-09-09T17:36:56;7.10;;;2.50;;
66927;SDS011;59882;45.624;11.698;2022-09-09T17:39:22;5.22;;;2.08;;
66927;SDS011;59882;45.624;11.698;2022-09-09T17:41:47;6.00;;;2.13;;